Time;durP1;ratioP1;P1;durP2;ratioP2;P2;SDS_P1;SDS_P2;PMS_P1;PMS_P2;Temp;Humidity;BMP_temperature;BMP_pressure;BME280_temperature;BME280_humidity;BME280_pressure;Samples;Min_cycle;Max_cycle;Signal;HPM_P1;HPM_P2
2022/10/25 00:02:24;;;;;;;20.05;14.80;;;;;;;;;;5092024;28;20067;-66
2022/10/25 00:04:50;;;;;;;20.48;14.93;;;;;;;;;;5091829;28;20027;-67
2022/10/25 00:07:16;;;;;;;26.73;15.30;;;;;;;;;;5091925;28;20442;-66
2022/10/25 00:09:42;;;;;;;20.20;14.65;;;;;;;;;;5092156;28;20040;-66
2022/10/25 00:12:08;;;;;;;22.98;15.15;;;;;;;;;;5091915;28;20111;-66
2022/10/25 00:14:34;;;;;;;23.70;15.10;;;;;;;;;;5091109;28;20058;-66
2022/10/25 00:17:00;;;;;;;21.23;14.82;;;;;;;;;;5091891;28;20115;-67
2022/10/25 00:19:26;;;;;;;18.67;15.40;;;;;;;;;;5091800;28;20047;-67
2022/10/25 00:21:52;;;;;;;23.33;16.42;;;;;;;;;;5091744;28;20032;-66
2022/10/25 00:24:18;;;;;;;21.33;16.02;;;;;;;;;;5091686;28;20080;-67
2022/10/25 00:26:44;;;;;;;19.00;15.77;;;;;;;;;;5091801;28;20051;-67
2022/10/25 00:29:11;;;;;;;21.20;15.77;;;;;;;;;;5091546;28;20067;-66
2022/10/25 00:31:37;;;;;;;19.67;16.30;;;;;;;;;;5073295;28;20111;-66
2022/10/25 00:34:04;;;;;;;29.08;16.70;;;;;;;;;;5091368;28;20028;-66
2022/10/25 00:36:30;;;;;;;27.35;16.75;;;;;;;;;;5091486;28;20065;-66
2022/10/25 00:38:57;;;;;;;20.95;14.27;;;;;;;;;;5091332;28;20431;-66
2022/10/25 00:41:24;;;;;;;19.92;14.55;;;;;;;;;;5073234;28;20081;-67
2022/10/25 00:43:54;;;;;;;26.98;16.08;;;;;;;;;;5091170;28;20115;-66
2022/10/25 00:46:21;;;;;;;20.80;15.15;;;;;;;;;;5091424;28;20069;-67
2022/10/25 00:48:54;;;;;;;22.38;15.25;;;;;;;;;;5072733;28;20032;-66
2022/10/25 00:51:21;;;;;;;18.65;14.43;;;;;;;;;;5091162;28;20449;-66
2022/10/25 00:53:47;;;;;;;19.58;14.77;;;;;;;;;;5091079;28;20056;-67
2022/10/25 00:56:18;;;;;;;23.63;14.85;;;;;;;;;;5073053;28;20077;-66
2022/10/25 00:58:50;;;;;;;19.05;13.07;;;;;;;;;;5091321;28;20388;-67
2022/10/25 01:01:16;;;;;;;19.73;14.65;;;;;;;;;;5090924;28;20502;-66
2022/10/25 01:03:43;;;;;;;20.63;14.77;;;;;;;;;;5072739;28;20056;-67
2022/10/25 01:06:17;;;;;;;20.88;14.93;;;;;;;;;;5072934;28;20053;-66
2022/10/25 01:08:43;;;;;;;21.02;14.27;;;;;;;;;;5090945;28;20472;-66
2022/10/25 01:11:09;;;;;;;23.13;15.43;;;;;;;;;;5090989;28;20024;-67
2022/10/25 01:13:36;;;;;;;22.00;14.75;;;;;;;;;;5072504;28;20027;-67
2022/10/25 01:16:17;;;;;;;20.23;14.55;;;;;;;;;;5091118;28;20031;-66
2022/10/25 01:18:45;;;;;;;23.90;13.65;;;;;;;;;;5091031;28;20024;-66
2022/10/25 01:21:24;;;;;;;19.70;12.80;;;;;;;;;;5090809;28;20086;-66
2022/10/25 01:23:53;;;;;;;22.20;13.77;;;;;;;;;;5090731;28;20024;-66
2022/10/25 01:26:19;;;;;;;;;;;;;;;;;;5072310;28;20084;-67
2022/10/25 01:28:45;;;;;;;23.17;12.50;;;;;;;;;;5090832;28;19939;-67
2022/10/25 01:31:20;;;;;;;19.42;12.50;;;;;;;;;;5090822;28;20032;-66
2022/10/25 01:33:46;;;;;;;20.10;12.32;;;;;;;;;;5090378;28;20023;-67
2022/10/25 01:36:31;;;;;;;20.67;10.82;;;;;;;;;;5090670;28;20064;-66
2022/10/25 01:39:03;;;;;;;18.13;10.93;;;;;;;;;;5072354;28;20020;-66
2022/10/25 01:41:32;;;;;;;24.92;11.60;;;;;;;;;;5090509;28;20035;-67
2022/10/25 01:44:18;;;;;;;18.90;11.30;;;;;;;;;;5090215;28;20020;-66
2022/10/25 01:46:46;;;;;;;20.48;13.13;;;;;;;;;;5072228;28;20103;-71
2022/10/25 01:49:14;;;;;;;20.13;11.45;;;;;;;;;;5090706;28;20035;-66
2022/10/25 01:51:40;;;;;;;20.27;10.50;;;;;;;;;;5090607;28;20035;-67
2022/10/25 01:54:17;;;;;;;18.67;10.35;;;;;;;;;;5090500;28;20662;-66
2022/10/25 01:56:48;;;;;;;20.20;10.85;;;;;;;;;;5072320;28;20120;-66
2022/10/25 01:59:20;;;;;;;19.42;10.57;;;;;;;;;;5090353;28;20543;-67
2022/10/25 02:02:05;;;;;;;20.35;10.48;;;;;;;;;;5090719;28;20055;-67
2022/10/25 02:05:01;;;;;;;18.80;10.25;;;;;;;;;;5072015;28;20031;-66
2022/10/25 02:07:53;;;;;;;19.98;10.13;;;;;;;;;;5073030;28;20055;-67
2022/10/25 02:10:22;;;;;;;19.25;10.20;;;;;;;;;;5086922;28;20124;-67
2022/10/25 02:12:48;;;;;;;19.70;11.57;;;;;;;;;;5090387;28;20461;-67
2022/10/25 02:15:22;;;;;;;19.83;11.90;;;;;;;;;;5072055;28;20027;-67
2022/10/25 02:17:54;;;;;;;20.50;12.25;;;;;;;;;;5072227;28;20020;-67
2022/10/25 02:20:22;;;;;;;19.63;11.80;;;;;;;;;;5090204;28;20024;-66
2022/10/25 02:22:49;;;;;;;18.55;11.18;;;;;;;;;;5090120;28;20103;-66
2022/10/25 02:25:15;;;;;;;22.63;11.63;;;;;;;;;;5089985;28;20391;-66
2022/10/25 02:27:43;;;;;;;19.30;11.48;;;;;;;;;;5072064;28;20032;-66
2022/10/25 02:30:10;;;;;;;21.50;10.83;;;;;;;;;;5090127;28;20051;-67
2022/10/25 02:32:36;;;;;;;22.25;11.43;;;;;;;;;;5090118;28;20286;-67
2022/10/25 02:35:02;;;;;;;21.55;11.88;;;;;;;;;;5071642;28;20123;-66
2022/10/25 02:37:28;;;;;;;20.75;11.55;;;;;;;;;;5092049;28;20031;-65
2022/10/25 02:39:54;;;;;;;19.58;10.30;;;;;;;;;;5093710;28;20024;-65
2022/10/25 02:45:24;;;;;;;20.10;11.05;;;;;;;;;;5093848;28;20024;-65
2022/10/25 02:47:50;;;;;;;18.08;10.88;;;;;;;;;;5093492;28;20403;-65
2022/10/25 02:50:16;;;;;;;21.77;11.68;;;;;;;;;;5075452;28;20027;-64
2022/10/25 02:52:41;;;;;;;20.42;11.27;;;;;;;;;;5093400;28;20028;-65
2022/10/25 02:55:08;;;;;;;25.33;11.48;;;;;;;;;;5093503;28;20020;-65
2022/10/25 02:57:35;;;;;;;18.58;11.88;;;;;;;;;;5093565;28;20020;-66
2022/10/25 03:00:01;;;;;;;17.77;11.40;;;;;;;;;;5085902;28;20075;-66
2022/10/25 03:02:27;;;;;;;19.35;11.27;;;;;;;;;;5113860;28;20032;-66
2022/10/25 03:04:53;;;;;;;21.67;10.55;;;;;;;;;;5113504;28;20425;-65
2022/10/25 03:07:19;;;;;;;21.80;11.23;;;;;;;;;;5095359;28;20031;-65
2022/10/25 03:09:45;;;;;;;20.65;10.45;;;;;;;;;;5113315;28;20032;-65
2022/10/25 03:12:11;;;;;;;18.23;11.32;;;;;;;;;;5095334;28;20394;-65
2022/10/25 03:14:37;;;;;;;19.35;10.90;;;;;;;;;;5094934;28;20119;-65
2022/10/25 03:17:05;;;;;;;17.95;10.05;;;;;;;;;;5113615;28;20028;-65
2022/10/25 03:19:31;;;;;;;21.88;11.50;;;;;;;;;;5113522;28;20060;-66
2022/10/25 03:21:57;;;;;;;20.52;10.68;;;;;;;;;;5113439;28;20034;-65
2022/10/25 03:24:23;;;;;;;19.15;10.90;;;;;;;;;;5094682;28;20024;-65
2022/10/25 03:26:49;;;;;;;21.90;10.90;;;;;;;;;;5095272;28;20505;-66
2022/10/25 03:29:14;;;;;;;19.58;10.43;;;;;;;;;;5113499;28;20072;-65
2022/10/25 03:31:40;;;;;;;18.15;11.48;;;;;;;;;;5113658;28;20033;-66
2022/10/25 03:34:06;;;;;;;18.45;10.07;;;;;;;;;;5113252;28;20597;-65
2022/10/25 03:36:32;;;;;;;17.77;8.75;;;;;;;;;;5113396;28;20055;-65
2022/10/25 03:38:58;;;;;;;18.80;8.90;;;;;;;;;;5113883;28;20045;-64
2022/10/25 03:41:25;;;;;;;21.00;8.70;;;;;;;;;;5103989;28;20020;-66
2022/10/25 03:43:51;;;;;;;22.92;10.13;;;;;;;;;;5092867;28;20024;-66
2022/10/25 03:46:17;;;;;;;20.27;9.48;;;;;;;;;;5074824;28;20031;-66
2022/10/25 03:48:43;;;;;;;18.00;8.20;;;;;;;;;;5073645;28;20032;-65
2022/10/25 03:51:09;;;;;;;16.83;8.07;;;;;;;;;;5092554;28;20540;-65
2022/10/25 03:53:35;;;;;;;20.50;8.35;;;;;;;;;;5074536;28;20024;-65
2022/10/25 03:56:01;;;;;;;18.30;8.48;;;;;;;;;;5092266;28;20526;-66
2022/10/25 03:58:27;;;;;;;20.08;7.97;;;;;;;;;;5092141;28;20051;-65
2022/10/25 04:00:53;;;;;;;27.17;10.80;;;;;;;;;;5092106;28;20021;-66
2022/10/25 04:03:19;;;;;;;25.17;9.48;;;;;;;;;;5091905;28;20027;-66
2022/10/25 04:05:45;;;;;;;17.63;8.30;;;;;;;;;;5092193;28;20027;-65
2022/10/25 04:08:11;;;;;;;17.45;9.18;;;;;;;;;;5091737;28;20035;-65
2022/10/25 04:10:37;;;;;;;17.58;9.48;;;;;;;;;;5073375;28;20027;-65
2022/10/25 04:13:03;;;;;;;19.83;9.13;;;;;;;;;;5073667;28;20486;-65
2022/10/25 04:15:29;;;;;;;19.48;10.18;;;;;;;;;;5091954;28;20392;-66
2022/10/25 04:17:55;;;;;;;25.15;9.65;;;;;;;;;;5091879;28;20020;-66
2022/10/25 04:20:21;;;;;;;19.40;9.80;;;;;;;;;;5091803;28;20543;-66
2022/10/25 04:22:56;;;;;;;22.25;9.25;;;;;;;;;;5092877;28;20043;-64
2022/10/25 04:25:26;;;;;;;18.58;9.70;;;;;;;;;;5112000;28;20110;-65
2022/10/25 04:27:52;;;;;;;18.63;9.00;;;;;;;;;;5111866;28;20027;-66
2022/10/25 04:30:18;;;;;;;19.17;9.88;;;;;;;;;;5111831;28;20088;-66
2022/10/25 04:32:44;;;;;;;19.52;9.00;;;;;;;;;;5111791;28;20054;-65
2022/10/25 04:35:11;;;;;;;18.70;9.00;;;;;;;;;;5111677;28;20710;-66
2022/10/25 04:37:38;;;;;;;25.38;9.68;;;;;;;;;;5111687;28;20103;-66
2022/10/25 04:40:04;;;;;;;18.35;8.68;;;;;;;;;;5111804;28;20028;-66
2022/10/25 04:42:33;;;;;;;22.58;9.15;;;;;;;;;;5092705;28;20028;-65
2022/10/25 04:44:59;;;;;;;20.77;7.88;;;;;;;;;;5091135;28;20031;-66
2022/10/25 04:47:25;;;;;;;17.17;9.23;;;;;;;;;;5072751;28;20429;-66
2022/10/25 04:49:51;;;;;;;18.55;9.57;;;;;;;;;;5108468;22;20135;-58
2022/10/25 04:52:18;;;;;;;18.70;9.82;;;;;;;;;;5076419;28;20035;-65
2022/10/25 04:54:44;;;;;;;19.42;10.25;;;;;;;;;;5096411;28;20039;-65
2022/10/25 04:57:10;;;;;;;19.58;10.95;;;;;;;;;;5075452;28;20050;-65
2022/10/25 04:59:36;;;;;;;21.95;10.30;;;;;;;;;;5093309;28;20489;-64
2022/10/25 05:02:02;;;;;;;20.35;10.15;;;;;;;;;;5094171;28;20028;-66
2022/10/25 05:04:28;;;;;;;24.65;10.77;;;;;;;;;;5093332;28;20071;-63
2022/10/25 05:06:54;;;;;;;21.58;10.02;;;;;;;;;;5094970;28;20388;-63
2022/10/25 05:09:20;;;;;;;20.45;9.95;;;;;;;;;;5076413;28;20543;-65
2022/10/25 05:11:46;;;;;;;22.75;10.10;;;;;;;;;;5075120;28;20048;-66
2022/10/25 05:14:11;;;;;;;22.60;10.43;;;;;;;;;;5074935;28;20438;-65
2022/10/25 05:16:38;;;;;;;21.15;10.82;;;;;;;;;;5092316;28;20084;-65
2022/10/25 05:19:04;;;;;;;21.60;10.15;;;;;;;;;;5092284;28;20507;-66
2022/10/25 05:21:30;;;;;;;19.02;8.75;;;;;;;;;;5092714;28;20028;-65
2022/10/25 05:23:59;;;;;;;23.90;9.80;;;;;;;;;;5074483;28;20035;-64
2022/10/25 05:26:25;;;;;;;21.92;9.75;;;;;;;;;;5092268;28;20424;-64
2022/10/25 05:28:52;;;;;;;19.58;9.25;;;;;;;;;;5092975;28;20107;-68
2022/10/25 05:31:22;;;;;;;18.63;8.77;;;;;;;;;;5092853;28;20028;-62
2022/10/25 05:33:50;;;;;;;21.33;8.98;;;;;;;;;;5092677;28;20059;-65
2022/10/25 05:36:16;;;;;;;21.33;9.95;;;;;;;;;;5093142;28;20020;-66
2022/10/25 05:38:42;;;;;;;21.80;9.60;;;;;;;;;;5092868;28;20034;-65
2022/10/25 05:41:10;;;;;;;17.98;8.93;;;;;;;;;;5093099;28;20028;-66
2022/10/25 05:43:36;;;;;;;23.38;9.88;;;;;;;;;;5073800;28;20122;-65
2022/10/25 05:46:10;;;;;;;19.38;9.52;;;;;;;;;;5073500;28;20055;-61
2022/10/25 05:48:36;;;;;;;20.00;10.95;;;;;;;;;;5091271;28;20383;-65
2022/10/25 05:51:11;;;;;;;19.42;10.70;;;;;;;;;;5092580;28;20483;-66
2022/10/25 05:53:37;;;;;;;20.77;11.68;;;;;;;;;;5091368;28;20025;-64
2022/10/25 05:56:03;;;;;;;31.60;11.70;;;;;;;;;;5092498;28;20028;-65
2022/10/25 05:58:29;;;;;;;21.02;11.10;;;;;;;;;;5091459;28;20020;-65
2022/10/25 06:00:58;;;;;;;20.77;10.57;;;;;;;;;;5091748;28;20115;-65
2022/10/25 06:03:24;;;;;;;22.13;10.18;;;;;;;;;;5092088;28;20052;-65
2022/10/25 06:05:50;;;;;;;20.25;10.75;;;;;;;;;;5092922;28;20032;-66
2022/10/25 06:08:16;;;;;;;17.65;10.35;;;;;;;;;;5093388;28;20024;-65
2022/10/25 06:10:42;;;;;;;19.23;10.73;;;;;;;;;;5092750;28;20154;-65
2022/10/25 06:13:08;;;;;;;21.02;11.20;;;;;;;;;;5096012;28;20344;-66
2022/10/25 06:15:37;;;;;;;18.73;10.85;;;;;;;;;;5097084;28;20035;-65
2022/10/25 06:18:03;;;;;;;;;;;;;;;;;;5097460;28;20027;-67
2022/10/25 06:20:28;;;;;;;21.02;10.05;;;;;;;;;;5096936;28;20002;-64
2022/10/25 06:22:54;;;;;;;19.27;11.73;;;;;;;;;;5095514;28;20020;-63
2022/10/25 06:25:20;;;;;;;20.73;10.60;;;;;;;;;;5096210;28;20559;-65
2022/10/25 06:27:46;;;;;;;25.17;11.38;;;;;;;;;;5096220;28;20035;-65
2022/10/25 06:30:12;;;;;;;22.05;11.70;;;;;;;;;;5094805;28;20093;-66
2022/10/25 06:32:38;;;;;;;18.92;11.02;;;;;;;;;;5095258;28;20046;-66
2022/10/25 06:35:05;;;;;;;22.33;11.05;;;;;;;;;;5096072;28;20052;-66
2022/10/25 06:37:31;;;;;;;21.55;10.48;;;;;;;;;;5094818;28;20051;-60
2022/10/25 06:39:57;;;;;;;18.88;10.90;;;;;;;;;;5095591;28;20443;-64
2022/10/25 06:42:23;;;;;;;19.85;11.43;;;;;;;;;;5095783;28;20028;-64
2022/10/25 06:44:49;;;;;;;21.02;10.82;;;;;;;;;;5095600;28;20024;-66
2022/10/25 06:47:15;;;;;;;20.00;10.30;;;;;;;;;;5077919;28;20077;-66
2022/10/25 06:49:41;;;;;;;18.65;10.20;;;;;;;;;;5095602;28;20051;-65
2022/10/25 06:52:07;;;;;;;24.75;10.30;;;;;;;;;;5077305;28;20028;-65
2022/10/25 06:54:33;;;;;;;18.48;10.18;;;;;;;;;;5095663;28;20153;-65
2022/10/25 06:56:59;;;;;;;18.85;10.13;;;;;;;;;;5095139;28;20423;-66
2022/10/25 06:59:25;;;;;;;19.50;9.43;;;;;;;;;;5095598;28;20111;-65
2022/10/25 07:01:51;;;;;;;20.42;10.05;;;;;;;;;;5077400;28;20106;-66
2022/10/25 07:04:17;;;;;;;18.27;9.88;;;;;;;;;;5076900;28;20595;-66
2022/10/25 07:06:43;;;;;;;20.65;10.20;;;;;;;;;;5095465;28;20028;-66
2022/10/25 07:09:11;;;;;;;17.85;9.95;;;;;;;;;;5095441;28;20028;-66
2022/10/25 07:11:37;;;;;;;23.40;10.60;;;;;;;;;;5095282;28;20103;-66
2022/10/25 07:14:03;;;;;;;23.90;9.70;;;;;;;;;;5076947;28;20161;-66
2022/10/25 07:16:29;;;;;;;25.17;11.05;;;;;;;;;;5094952;28;20028;-66
2022/10/25 07:18:59;;;;;;;19.05;9.85;;;;;;;;;;5095044;28;20032;-65
2022/10/25 07:21:26;;;;;;;20.85;9.95;;;;;;;;;;5095852;28;20024;-66
2022/10/25 07:23:52;;;;;;;19.38;10.02;;;;;;;;;;5093588;28;20107;-65
2022/10/25 07:26:20;;;;;;;21.50;11.55;;;;;;;;;;5094919;28;20028;-64
2022/10/25 07:28:46;;;;;;;19.80;9.35;;;;;;;;;;5076953;28;20040;-66
2022/10/25 07:31:13;;;;;;;22.52;10.15;;;;;;;;;;5076867;28;20020;-64
2022/10/25 07:33:39;;;;;;;17.35;9.15;;;;;;;;;;5094883;28;20121;-65
2022/10/25 07:36:05;;;;;;;19.20;9.65;;;;;;;;;;5076621;28;20055;-69
2022/10/25 07:38:31;;;;;;;18.65;10.18;;;;;;;;;;5094485;28;20027;-68
2022/10/25 07:40:57;;;;;;;24.05;11.18;;;;;;;;;;5077426;28;20012;-68
2022/10/25 07:43:27;;;;;;;27.70;10.50;;;;;;;;;;5095055;28;20016;-68
2022/10/25 07:45:54;;;;;;;20.60;8.90;;;;;;;;;;5094621;28;20376;-67
2022/10/25 07:48:20;;;;;;;22.27;9.93;;;;;;;;;;5095246;28;20052;-66
2022/10/25 07:50:46;;;;;;;22.23;10.02;;;;;;;;;;5094474;28;20169;-68
2022/10/25 07:53:12;;;;;;;20.35;9.70;;;;;;;;;;5093915;28;20093;-67
2022/10/25 07:55:38;;;;;;;23.38;10.18;;;;;;;;;;5094278;28;20020;-65
2022/10/25 07:58:05;;;;;;;20.00;9.55;;;;;;;;;;5094131;28;20048;-67
2022/10/25 08:00:31;;;;;;;20.63;9.38;;;;;;;;;;5075850;28;20024;-67
2022/10/25 08:02:57;;;;;;;21.25;9.07;;;;;;;;;;5093686;28;20085;-68
2022/10/25 08:05:23;;;;;;;20.08;9.55;;;;;;;;;;5075705;28;20115;-68
2022/10/25 08:07:50;;;;;;;21.90;9.77;;;;;;;;;;5094250;28;20031;-68
2022/10/25 08:10:19;;;;;;;19.98;9.60;;;;;;;;;;5094093;28;20387;-67
2022/10/25 08:12:45;;;;;;;20.23;10.13;;;;;;;;;;5093235;28;20511;-67
2022/10/25 08:15:11;;;;;;;19.10;8.77;;;;;;;;;;5087319;28;20115;-67
2022/10/25 08:17:37;;;;;;;24.05;9.60;;;;;;;;;;5080966;28;20421;-68
2022/10/25 08:20:03;;;;;;;23.67;9.45;;;;;;;;;;5081953;28;20139;-67
2022/10/25 08:22:29;;;;;;;20.52;9.55;;;;;;;;;;5066353;28;20050;-67
2022/10/25 08:24:55;;;;;;;19.63;9.00;;;;;;;;;;5064171;28;20373;-66
2022/10/25 08:27:21;;;;;;;19.58;9.85;;;;;;;;;;5082268;28;20077;-66
2022/10/25 08:29:47;;;;;;;19.52;9.77;;;;;;;;;;5081467;28;20020;-67
2022/10/25 08:32:14;;;;;;;18.00;10.25;;;;;;;;;;5073100;28;20031;-67
2022/10/25 08:34:40;;;;;;;20.80;9.38;;;;;;;;;;5072840;28;20412;-67
2022/10/25 08:37:06;;;;;;;20.77;8.20;;;;;;;;;;5054946;28;20025;-65
2022/10/25 08:39:32;;;;;;;19.52;8.20;;;;;;;;;;5080801;28;20078;-66
2022/10/25 08:41:59;;;;;;;19.73;9.85;;;;;;;;;;5086832;28;20053;-66
2022/10/25 08:44:31;;;;;;;18.92;9.45;;;;;;;;;;5074403;28;20062;-66
2022/10/25 08:47:03;;;;;;;17.25;8.57;;;;;;;;;;5083359;28;20020;-68
2022/10/25 08:49:33;;;;;;;19.67;10.10;;;;;;;;;;5091884;28;20123;-66
2022/10/25 08:52:01;;;;;;;18.38;9.70;;;;;;;;;;5092822;28;20016;-67
2022/10/25 08:54:29;;;;;;;20.50;9.13;;;;;;;;;;5083042;28;20032;-66
2022/10/25 08:57:06;;;;;;;20.02;9.48;;;;;;;;;;5093147;28;20020;-66
2022/10/25 08:59:35;;;;;;;22.83;9.15;;;;;;;;;;5092590;28;20046;-67
2022/10/25 09:02:01;;;;;;;20.88;9.18;;;;;;;;;;5092889;28;20089;-66
2022/10/25 09:04:29;;;;;;;19.05;9.38;;;;;;;;;;5093329;28;20210;-66
2022/10/25 09:06:58;;;;;;;23.33;9.77;;;;;;;;;;5093382;28;20074;-66
2022/10/25 09:09:24;;;;;;;22.40;9.32;;;;;;;;;;5090731;28;20030;-66
2022/10/25 09:11:53;;;;;;;18.13;9.00;;;;;;;;;;5092977;28;20024;-66
2022/10/25 09:14:37;;;;;;;17.70;9.80;;;;;;;;;;5092422;28;20055;-65
2022/10/25 09:17:11;;;;;;;18.35;9.13;;;;;;;;;;5091489;28;20020;-66
2022/10/25 09:20:00;;;;;;;17.25;9.13;;;;;;;;;;5092332;28;20024;-64
2022/10/25 09:22:47;;;;;;;18.00;9.57;;;;;;;;;;5093108;28;20046;-67
2022/10/25 09:25:36;;;;;;;19.77;10.00;;;;;;;;;;5091490;28;20468;-67
2022/10/25 09:28:07;;;;;;;22.70;10.00;;;;;;;;;;5027967;28;20036;-66
2022/10/25 09:30:37;;;;;;;17.58;9.45;;;;;;;;;;5073750;28;20039;-67
2022/10/25 09:33:05;;;;;;;17.98;8.82;;;;;;;;;;5074028;28;20038;-66
2022/10/25 09:35:34;;;;;;;22.08;10.23;;;;;;;;;;5074095;28;20373;-66
2022/10/25 09:38:05;;;;;;;18.15;8.70;;;;;;;;;;5074048;28;20373;-66
2022/10/25 09:40:39;;;;;;;20.33;10.00;;;;;;;;;;5091751;28;20024;-66
2022/10/25 09:43:07;;;;;;;21.77;9.18;;;;;;;;;;5091898;28;20020;-67
2022/10/25 09:45:53;;;;;;;21.05;9.02;;;;;;;;;;5073777;28;20089;-66
2022/10/25 09:48:22;;;;;;;16.92;8.10;;;;;;;;;;5092077;28;20016;-66
2022/10/25 09:51:04;;;;;;;16.75;8.23;;;;;;;;;;5092907;28;20032;-66
2022/10/25 09:53:30;;;;;;;21.52;8.43;;;;;;;;;;5091942;28;20023;-67
2022/10/25 09:55:58;;;;;;;17.90;8.63;;;;;;;;;;5073702;28;20021;-66
2022/10/25 09:58:26;;;;;;;17.58;8.20;;;;;;;;;;5091899;28;20024;-66
2022/10/25 10:00:53;;;;;;;18.15;8.25;;;;;;;;;;5091590;28;20055;-63
2022/10/25 10:03:19;;;;;;;20.65;8.65;;;;;;;;;;5073407;28;20115;-66
2022/10/25 10:05:54;;;;;;;18.88;9.15;;;;;;;;;;5092210;28;20434;-67
2022/10/25 10:08:21;;;;;;;17.20;8.38;;;;;;;;;;5091728;28;20077;-66
2022/10/25 10:10:48;;;;;;;17.02;8.00;;;;;;;;;;5073750;28;20020;-67
2022/10/25 10:13:27;;;;;;;23.38;8.43;;;;;;;;;;5091003;28;20484;-66
2022/10/25 10:15:55;;;;;;;18.48;8.85;;;;;;;;;;5092037;28;20375;-66
2022/10/25 10:18:32;;;;;;;18.50;8.95;;;;;;;;;;5091805;28;20024;-66
2022/10/25 10:20:58;;;;;;;24.17;10.05;;;;;;;;;;5091782;28;20027;-66
2022/10/25 10:23:25;;;;;;;18.73;9.05;;;;;;;;;;5091326;28;20024;-66
2022/10/25 10:25:51;;;;;;;19.20;9.68;;;;;;;;;;5091805;28;20028;-66
2022/10/25 10:28:18;;;;;;;18.73;9.10;;;;;;;;;;5091597;28;20016;-67
2022/10/25 10:30:52;;;;;;;20.77;9.70;;;;;;;;;;5073362;28;20024;-67
2022/10/25 10:33:18;;;;;;;21.30;9.10;;;;;;;;;;5073032;28;20032;-66
2022/10/25 10:35:44;;;;;;;18.67;9.60;;;;;;;;;;5073830;28;20020;-66
2022/10/25 10:38:14;;;;;;;20.90;9.30;;;;;;;;;;5092006;28;20030;-65
2022/10/25 10:40:40;;;;;;;20.17;9.23;;;;;;;;;;5073410;28;20503;-65
2022/10/25 10:43:22;;;;;;;18.02;8.98;;;;;;;;;;5072615;28;20051;-65
2022/10/25 10:45:50;;;;;;;17.65;8.75;;;;;;;;;;5091375;28;20039;-65
2022/10/25 10:48:20;;;;;;;19.23;9.80;;;;;;;;;;5091313;28;20028;-64
2022/10/25 10:50:50;;;;;;;19.90;9.60;;;;;;;;;;5113550;22;20048;-64
2022/10/25 10:53:28;;;;;;;18.25;9.00;;;;;;;;;;5090656;28;20040;-62
2022/10/25 10:55:55;;;;;;;16.98;8.98;;;;;;;;;;5091353;28;20013;-63
2022/10/25 10:58:24;;;;;;;18.70;9.05;;;;;;;;;;5092946;28;20095;-62
2022/10/25 11:00:52;;;;;;;18.00;8.15;;;;;;;;;;5094616;28;20020;-63
2022/10/25 11:03:37;;;;;;;19.53;8.33;;;;;;;;;;5094688;28;20081;-62
2022/10/25 11:06:04;;;;;;;16.77;9.20;;;;;;;;;;5094754;28;20399;-66
2022/10/25 11:08:31;;;;;;;18.27;8.77;;;;;;;;;;5094673;28;20024;-63
2022/10/25 11:11:18;;;;;;;19.60;8.48;;;;;;;;;;5076410;28;20353;-63
2022/10/25 11:13:51;;;;;;;18.00;8.85;;;;;;;;;;5076219;28;20028;-62
2022/10/25 11:16:20;;;;;;;19.20;8.68;;;;;;;;;;5094508;28;20031;-62
2022/10/25 11:19:15;;;;;;;19.17;9.02;;;;;;;;;;5094391;28;20020;-64
2022/10/25 11:21:51;;;;;;;18.83;8.27;;;;;;;;;;5059008;28;20036;-62
2022/10/25 11:24:36;;;;;;;17.05;7.88;;;;;;;;;;5094002;28;20024;-63
2022/10/25 11:27:03;;;;;;;21.35;9.75;;;;;;;;;;5094270;28;20028;-63
2022/10/25 11:29:48;;;;;;;16.88;9.18;;;;;;;;;;5093546;28;20099;-61
2022/10/25 11:32:14;;;;;;;16.35;8.23;;;;;;;;;;5093420;28;20103;-64
2022/10/25 11:34:47;;;;;;;18.15;8.32;;;;;;;;;;5093457;28;20138;-63
2022/10/25 11:37:16;;;;;;;17.90;8.30;;;;;;;;;;5075516;28;20020;-63
2022/10/25 11:40:01;;;;;;;16.45;8.23;;;;;;;;;;5093798;28;20018;-64
2022/10/25 11:42:30;;;;;;;16.40;8.80;;;;;;;;;;5089923;28;20537;-62
2022/10/25 11:44:56;;;;;;;16.48;8.70;;;;;;;;;;5093438;28;20024;-62
2022/10/25 11:47:38;;;;;;;17.63;8.13;;;;;;;;;;5094237;28;20032;-63
2022/10/25 11:50:22;;;;;;;18.08;8.50;;;;;;;;;;5093174;28;20038;-63
2022/10/25 11:53:06;;;;;;;18.40;8.77;;;;;;;;;;5093505;28;20203;-60
2022/10/25 11:55:42;;;;;;;18.55;8.57;;;;;;;;;;5093765;28;20028;-64
2022/10/25 11:58:34;;;;;;;19.85;8.80;;;;;;;;;;5075865;28;20065;-63
2022/10/25 12:01:06;;;;;;;18.10;8.00;;;;;;;;;;5090060;28;20462;-63
2022/10/25 12:03:42;;;;;;;16.25;8.13;;;;;;;;;;5075131;28;20103;-61
2022/10/25 12:06:26;;;;;;;21.38;8.80;;;;;;;;;;5093442;28;20020;-64
2022/10/25 12:08:58;;;;;;;18.98;8.20;;;;;;;;;;5092635;28;20112;-63
2022/10/25 12:11:26;;;;;;;14.32;7.38;;;;;;;;;;5093034;28;20024;-62
2022/10/25 12:13:58;;;;;;;17.80;7.93;;;;;;;;;;5093159;28;20050;-62
2022/10/25 12:16:25;;;;;;;20.00;8.27;;;;;;;;;;5093150;28;20024;-63
2022/10/25 12:18:55;;;;;;;18.25;8.00;;;;;;;;;;5093091;28;20526;-63
2022/10/25 12:21:23;;;;;;;17.38;7.72;;;;;;;;;;5093143;28;20024;-62
2022/10/25 12:23:51;;;;;;;18.10;8.43;;;;;;;;;;5091729;28;20082;-63
2022/10/25 12:26:34;;;;;;;15.52;7.63;;;;;;;;;;5084884;28;20145;-63
2022/10/25 12:29:02;;;;;;;19.02;9.23;;;;;;;;;;5090519;28;20063;-63
2022/10/25 12:31:35;;;;;;;19.10;8.57;;;;;;;;;;5092259;28;20115;-63
2022/10/25 12:34:08;;;;;;;16.23;7.90;;;;;;;;;;5090292;28;20269;-63
2022/10/25 12:36:44;;;;;;;16.20;7.72;;;;;;;;;;5086706;28;20056;-70
2022/10/25 12:39:17;;;;;;;16.23;7.68;;;;;;;;;;5072781;28;20016;-62
2022/10/25 12:41:46;;;;;;;16.48;6.80;;;;;;;;;;5092722;28;20165;-64
2022/10/25 12:44:20;;;;;;;17.83;7.50;;;;;;;;;;5092078;28;20016;-63
2022/10/25 12:47:02;;;;;;;15.88;7.00;;;;;;;;;;5090272;28;20020;-62
2022/10/25 12:49:51;;;;;;;17.52;7.30;;;;;;;;;;5063710;28;20410;-63
2022/10/25 12:52:29;;;;;;;16.75;7.60;;;;;;;;;;5083025;28;20387;-62
2022/10/25 12:55:08;;;;;;;16.10;7.43;;;;;;;;;;5090371;28;20055;-61
2022/10/25 12:57:40;;;;;;;19.60;7.90;;;;;;;;;;5074502;28;20024;-63
2022/10/25 13:00:14;;;;;;;17.00;7.60;;;;;;;;;;5092428;28;20475;-64
2022/10/25 13:02:46;;;;;;;21.13;7.40;;;;;;;;;;5092287;28;20032;-64
2022/10/25 13:05:28;;;;;;;18.50;7.85;;;;;;;;;;5074442;28;20032;-64
2022/10/25 13:07:58;;;;;;;18.80;7.93;;;;;;;;;;5087445;28;20032;-63
2022/10/25 13:10:24;;;;;;;17.30;7.80;;;;;;;;;;5091821;28;20031;-64
2022/10/25 13:13:05;;;;;;;16.10;7.35;;;;;;;;;;5092967;28;20071;-63
2022/10/25 13:15:40;;;;;;;16.25;7.60;;;;;;;;;;5074127;28;20024;-62
2022/10/25 13:18:07;;;;;;;16.20;7.43;;;;;;;;;;5091872;28;20032;-64
2022/10/25 13:20:33;;;;;;;16.48;7.97;;;;;;;;;;5091854;28;20087;-64
2022/10/25 13:22:59;;;;;;;18.75;7.63;;;;;;;;;;5092990;28;20062;-61
2022/10/25 13:25:31;;;;;;;16.83;7.45;;;;;;;;;;5091581;28;20023;-62
2022/10/25 13:28:15;;;;;;;17.95;8.05;;;;;;;;;;5091671;28;20051;-64
2022/10/25 13:30:42;;;;;;;16.33;7.45;;;;;;;;;;5089174;28;20020;-62
2022/10/25 13:33:23;;;;;;;17.17;8.32;;;;;;;;;;5091046;28;20032;-62
2022/10/25 13:35:49;;;;;;;21.33;8.63;;;;;;;;;;5089090;28;20365;-64
2022/10/25 13:38:26;;;;;;;18.33;8.32;;;;;;;;;;5091236;28;20031;-63
2022/10/25 13:41:04;;;;;;;16.17;7.85;;;;;;;;;;5080832;28;20391;-63
2022/10/25 13:43:30;;;;;;;19.30;8.52;;;;;;;;;;5079520;28;20419;-64
2022/10/25 13:45:57;;;;;;;18.42;8.52;;;;;;;;;;5091607;28;20419;-62
2022/10/25 13:48:33;;;;;;;17.00;8.45;;;;;;;;;;5091596;28;20021;-62
2022/10/25 13:51:03;;;;;;;17.65;8.50;;;;;;;;;;5091226;28;20190;-64
2022/10/25 13:53:44;;;;;;;16.80;8.20;;;;;;;;;;5091658;28;20364;-64
2022/10/25 13:56:14;;;;;;;15.75;8.10;;;;;;;;;;5091558;28;20047;-64
2022/10/25 13:58:41;;;;;;;15.35;8.38;;;;;;;;;;5091171;28;20446;-63
2022/10/25 14:01:30;;;;;;;17.65;9.18;;;;;;;;;;5073143;28;20028;-63
2022/10/25 14:04:04;;;;;;;16.70;8.80;;;;;;;;;;5053495;28;20047;-62
2022/10/25 14:06:30;;;;;;;15.13;8.68;;;;;;;;;;5091542;28;20026;-62
2022/10/25 14:09:08;;;;;;;14.90;7.82;;;;;;;;;;5091244;28;20028;-64
2022/10/25 14:11:37;;;;;;;15.43;8.60;;;;;;;;;;5090968;28;20078;-63
2022/10/25 14:14:12;;;;;;;16.42;8.30;;;;;;;;;;5091282;28;20472;-62
2022/10/25 14:16:41;;;;;;;17.25;8.95;;;;;;;;;;5091232;28;20027;-63
2022/10/25 14:19:15;;;;;;;18.65;8.55;;;;;;;;;;5090999;28;20106;-63
2022/10/25 14:21:46;;;;;;;16.48;7.90;;;;;;;;;;5091104;28;20089;-64
2022/10/25 14:24:13;;;;;;;18.25;8.07;;;;;;;;;;5090800;28;20545;-62
2022/10/25 14:26:48;;;;;;;20.43;8.40;;;;;;;;;;5091446;28;20451;-60
2022/10/25 14:29:17;;;;;;;16.83;8.55;;;;;;;;;;5091444;28;20557;-62
2022/10/25 14:31:43;;;;;;;17.60;8.73;;;;;;;;;;5090803;28;20028;-63
2022/10/25 14:34:28;;;;;;;18.58;8.20;;;;;;;;;;5094125;28;20365;-63
2022/10/25 14:36:58;;;;;;;16.60;8.40;;;;;;;;;;5094793;28;20052;-62
2022/10/25 14:39:30;;;;;;;16.75;9.30;;;;;;;;;;5074295;28;20093;-63
2022/10/25 14:41:56;;;;;;;18.65;8.73;;;;;;;;;;5094574;28;20028;-63
2022/10/25 14:44:24;;;;;;;15.88;8.40;;;;;;;;;;5094055;28;20054;-63